createdAt,value
2017-09-03T00:00:26.331Z,9.80
2017-09-03T00:02:53.756Z,9.80
2017-09-03T00:05:20.838Z,9.70
2017-09-03T00:07:47.900Z,9.60
2017-09-03T00:10:14.926Z,9.40
2017-09-03T00:12:42.844Z,9.40
2017-09-03T00:15:09.918Z,9.30
2017-09-03T00:17:36.950Z,9.30
2017-09-03T00:20:03.991Z,9.40
2017-09-03T00:22:31.046Z,9.10
2017-09-03T00:24:58.074Z,8.70
2017-09-03T00:27:25.095Z,8.50
2017-09-03T00:29:52.816Z,8.70
2017-09-03T00:32:19.858Z,8.70
2017-09-03T00:34:47.451Z,8.80
2017-09-03T00:37:14.565Z,9.10
2017-09-03T00:39:41.977Z,9.20
2017-09-03T00:42:09.364Z,9.10
2017-09-03T00:44:36.392Z,9.20
2017-09-03T00:47:03.435Z,9.20
2017-09-03T00:49:30.483Z,9.00
2017-09-03T00:51:57.542Z,9.10
2017-09-03T00:54:25.387Z,8.80
2017-09-03T00:56:53.307Z,8.70
2017-09-03T00:59:20.381Z,8.80
2017-09-03T01:01:47.406Z,8.70
2017-09-03T01:04:14.437Z,8.60
2017-09-03T01:06:41.480Z,8.90
2017-09-03T01:09:08.520Z,8.90
2017-09-03T01:11:35.559Z,9.10
2017-09-03T01:14:03.345Z,9.10
2017-09-03T01:16:30.386Z,9.10
2017-09-03T01:18:57.414Z,9.10
2017-09-03T01:21:24.424Z,9.10
2017-09-03T01:23:51.475Z,8.90
2017-09-03T01:26:18.500Z,9.00
2017-09-03T01:28:45.580Z,8.40
2017-09-03T01:31:12.615Z,8.10
2017-09-03T01:33:39.639Z,8.00
2017-09-03T01:36:06.684Z,8.10
2017-09-03T01:38:33.706Z,8.10
2017-09-03T01:41:00.755Z,8.00
2017-09-03T01:43:27.776Z,8.20
2017-09-03T01:45:54.794Z,8.40
2017-09-03T01:48:21.848Z,8.40
2017-09-03T01:50:48.868Z,8.60
2017-09-03T01:53:15.880Z,8.70
2017-09-03T01:55:42.904Z,8.80
2017-09-03T01:58:09.951Z,8.80
2017-09-03T02:00:36.967Z,8.70
2017-09-03T02:03:03.991Z,8.60
2017-09-03T02:05:31.019Z,8.60
2017-09-03T02:07:58.813Z,8.70
2017-09-03T02:10:25.847Z,8.70
2017-09-03T02:12:52.878Z,8.70
2017-09-03T02:15:20.716Z,8.70
2017-09-03T02:17:47.735Z,8.70
2017-09-03T02:20:14.756Z,8.60
2017-09-03T02:22:42.566Z,8.50
2017-09-03T02:25:09.693Z,8.50
2017-09-03T02:27:36.747Z,8.50
2017-09-03T02:30:03.759Z,8.40
2017-09-03T02:32:30.806Z,8.40
2017-09-03T02:34:57.869Z,8.60
2017-09-03T02:37:24.914Z,8.70
2017-09-03T02:39:51.920Z,8.70
2017-09-03T02:42:18.976Z,8.70
2017-09-03T02:44:45.982Z,8.60
2017-09-03T02:47:13.035Z,8.60
2017-09-03T02:49:40.038Z,8.70
2017-09-03T02:52:07.847Z,8.70
2017-09-03T02:54:34.895Z,8.70
2017-09-03T02:57:01.936Z,8.70
2017-09-03T02:59:29.006Z,8.70
2017-09-03T03:01:56.024Z,8.70
2017-09-03T03:04:23.055Z,8.60
2017-09-03T03:06:50.121Z,8.60
2017-09-03T03:09:17.151Z,8.60
2017-09-03T03:11:44.208Z,8.70
2017-09-03T03:14:11.235Z,8.60
2017-09-03T03:16:38.250Z,8.70
2017-09-03T03:19:05.323Z,8.60
2017-09-03T03:21:32.347Z,8.70
2017-09-03T03:23:59.419Z,8.70
2017-09-03T03:26:26.437Z,8.80
2017-09-03T03:28:53.524Z,8.80
2017-09-03T03:31:20.541Z,8.90
2017-09-03T03:33:47.564Z,8.90
2017-09-03T03:36:14.603Z,8.90
2017-09-03T03:38:41.619Z,8.90
2017-09-03T03:41:08.687Z,8.90
2017-09-03T03:43:35.729Z,8.80
2017-09-03T03:46:02.750Z,8.80
2017-09-03T03:48:29.798Z,9.00
2017-09-03T03:50:56.816Z,9.00
2017-09-03T03:53:23.876Z,9.00
2017-09-03T03:55:50.896Z,9.00
2017-09-03T03:58:17.919Z,9.00
2017-09-03T04:00:44.981Z,9.10
2017-09-03T04:03:11.990Z,9.10
2017-09-03T04:05:39.027Z,9.10
2017-09-03T04:08:06.047Z,9.20
2017-09-03T04:10:33.100Z,9.10
2017-09-03T04:13:00.128Z,9.20
2017-09-03T04:15:27.159Z,9.20
2017-09-03T04:17:54.191Z,9.30
2017-09-03T04:20:21.211Z,9.30
2017-09-03T04:22:48.278Z,9.30
2017-09-03T04:25:15.340Z,9.40
2017-09-03T04:27:42.370Z,9.50
2017-09-03T04:43:14.428Z,9.50
2017-09-03T04:45:41.439Z,9.50
2017-09-03T04:48:08.495Z,9.50
2017-09-03T04:50:35.531Z,9.50
2017-09-03T04:53:02.546Z,9.50
2017-09-03T04:55:29.593Z,9.50
2017-09-03T04:57:56.605Z,9.50
2017-09-03T05:00:23.651Z,9.50
2017-09-03T05:02:50.669Z,9.50
2017-09-03T05:05:17.705Z,9.50
2017-09-03T05:07:44.752Z,9.50
2017-09-03T05:10:11.795Z,9.50
2017-09-03T05:12:38.829Z,9.50
2017-09-03T05:15:05.846Z,9.40
2017-09-03T05:17:32.897Z,9.50
2017-09-03T05:19:59.925Z,9.60
2017-09-03T05:22:26.980Z,9.60
2017-09-03T05:24:54.021Z,9.70
2017-09-03T05:27:21.042Z,9.70
2017-09-03T05:29:48.085Z,9.60
2017-09-03T05:32:15.146Z,9.70
2017-09-03T05:34:43.051Z,9.70
2017-09-03T05:37:10.095Z,9.80
2017-09-03T05:39:37.135Z,9.70
2017-09-03T05:42:04.178Z,9.70
2017-09-03T05:44:31.203Z,9.80
2017-09-03T05:46:58.265Z,9.80
2017-09-03T05:49:25.291Z,9.70
2017-09-03T05:51:53.181Z,9.80
2017-09-03T05:54:20.239Z,9.80
2017-09-03T05:56:47.275Z,10.60
2017-09-03T05:59:14.400Z,10.80
2017-09-03T06:01:41.489Z,10.80
2017-09-03T06:04:08.555Z,11.00
2017-09-03T06:06:35.602Z,10.80
2017-09-03T06:09:02.655Z,10.50
2017-09-03T06:11:29.800Z,10.40
2017-09-03T06:13:56.848Z,10.40
2017-09-03T06:16:23.895Z,10.30
2017-09-03T06:18:51.130Z,10.40
2017-09-03T06:21:18.185Z,10.40
2017-09-03T06:23:45.227Z,10.40
2017-09-03T06:26:12.240Z,10.40
2017-09-03T06:28:39.312Z,10.40
2017-09-03T06:31:06.322Z,10.40
2017-09-03T06:33:33.379Z,10.50
2017-09-03T06:38:56.411Z,10.50
2017-09-03T06:41:23.438Z,10.50
2017-09-03T06:43:50.536Z,10.60
2017-09-03T06:46:17.618Z,10.60
2017-09-03T06:48:44.795Z,10.70
2017-09-03T06:51:11.827Z,10.70
2017-09-03T06:53:38.875Z,10.60
2017-09-03T06:56:05.923Z,10.60
2017-09-03T06:58:32.966Z,10.70
2017-09-03T07:01:00.011Z,10.80
2017-09-03T07:03:27.047Z,10.80
2017-09-03T07:05:54.895Z,10.70
2017-09-03T07:08:22.023Z,10.70
2017-09-03T07:10:49.997Z,10.90
2017-09-03T07:13:17.113Z,10.90
2017-09-03T07:15:44.175Z,10.80
2017-09-03T07:18:11.244Z,10.70
2017-09-03T07:20:38.303Z,10.60
2017-09-03T07:23:05.330Z,10.60
2017-09-03T07:25:32.386Z,10.60
2017-09-03T07:27:59.452Z,10.70
2017-09-03T07:30:27.246Z,10.80
2017-09-03T07:32:54.290Z,10.80
2017-09-03T07:35:21.323Z,10.90
2017-09-03T07:37:48.359Z,11.10
2017-09-03T07:40:15.426Z,11.10
2017-09-03T07:42:42.474Z,11.10
2017-09-03T07:45:09.487Z,11.20
2017-09-03T07:47:36.545Z,11.30
2017-09-03T07:50:03.586Z,11.30
2017-09-03T07:52:30.637Z,11.30
2017-09-03T07:54:57.687Z,11.50
2017-09-03T07:57:24.743Z,11.50
2017-09-03T07:59:52.501Z,11.60
2017-09-03T08:02:19.541Z,11.80
2017-09-03T08:04:46.579Z,12.10
2017-09-03T08:07:13.636Z,11.90
2017-09-03T08:09:40.667Z,12.00
2017-09-03T08:12:07.692Z,11.90
2017-09-03T08:14:34.731Z,12.10
2017-09-03T08:17:01.781Z,12.20
2017-09-03T08:19:28.835Z,12.50
2017-09-03T08:21:55.867Z,12.30
2017-09-03T08:24:22.881Z,13.00
2017-09-03T08:26:49.949Z,12.70
2017-09-03T08:29:16.987Z,12.70
2017-09-03T08:31:44.039Z,13.00
2017-09-03T08:34:11.064Z,13.00
2017-09-03T08:36:38.139Z,13.00
2017-09-03T08:39:05.189Z,13.20
2017-09-03T08:41:33.119Z,13.00
2017-09-03T08:44:00.182Z,13.50
2017-09-03T08:46:27.255Z,13.30
2017-09-03T08:48:54.340Z,13.40
2017-09-03T08:51:21.386Z,13.20
2017-09-03T08:53:48.538Z,13.40
2017-09-03T08:56:15.602Z,13.50
2017-09-03T08:58:42.650Z,13.30
2017-09-03T09:01:09.721Z,13.60
2017-09-03T09:03:36.781Z,13.80
2017-09-03T09:06:03.832Z,13.90
2017-09-03T09:08:31.930Z,13.60
2017-09-03T09:10:58.965Z,13.80
2017-09-03T09:13:26.020Z,13.60
2017-09-03T09:15:53.043Z,13.80
2017-09-03T09:18:20.108Z,14.00
2017-09-03T09:20:47.924Z,14.40
2017-09-03T09:23:14.963Z,14.40
2017-09-03T09:25:42.092Z,14.40
2017-09-03T09:28:09.141Z,14.70
2017-09-03T09:30:36.211Z,14.60
2017-09-03T09:33:03.230Z,14.70
2017-09-03T09:35:31.079Z,14.60
2017-09-03T09:37:58.132Z,14.60
2017-09-03T09:40:25.970Z,14.60
2017-09-03T09:42:53.007Z,14.60
2017-09-03T09:45:20.032Z,14.30
2017-09-03T09:47:47.111Z,14.30
2017-09-03T09:50:14.199Z,14.10
2017-09-03T09:52:41.264Z,14.10
2017-09-03T09:55:08.326Z,14.10
2017-09-03T09:57:35.369Z,14.30
2017-09-03T10:00:02.422Z,15.00
2017-09-03T10:02:29.472Z,15.30
2017-09-03T10:04:56.639Z,15.00
2017-09-03T10:07:23.677Z,14.80
2017-09-03T10:09:50.702Z,14.70
2017-09-03T10:12:17.773Z,14.60
2017-09-03T10:14:44.831Z,14.20
2017-09-03T10:17:11.899Z,14.10
2017-09-03T10:19:38.920Z,14.10
2017-09-03T10:22:05.991Z,13.90
2017-09-03T10:24:33.025Z,14.00
2017-09-03T10:27:00.047Z,13.80
2017-09-03T10:29:27.113Z,14.00
2017-09-03T10:31:54.117Z,14.00
2017-09-03T10:34:21.200Z,14.10
2017-09-03T10:36:48.247Z,14.10
2017-09-03T10:39:15.266Z,13.90
2017-09-03T10:41:42.329Z,13.80
2017-09-03T10:44:09.399Z,13.80
2017-09-03T10:46:36.455Z,13.80
2017-09-03T10:49:03.579Z,13.80
2017-09-03T10:51:30.661Z,14.00
2017-09-03T10:57:28.186Z,14.10
2017-09-03T10:59:55.235Z,14.50
2017-09-03T11:02:22.273Z,14.80
2017-09-03T11:04:49.567Z,14.80
2017-09-03T11:07:16.603Z,14.50
2017-09-03T11:09:43.784Z,14.70
2017-09-03T11:12:10.852Z,14.60
2017-09-03T11:14:37.886Z,14.60
2017-09-03T11:17:05.020Z,14.70
2017-09-03T11:19:32.038Z,14.80
2017-09-03T11:21:59.117Z,14.80
2017-09-03T11:24:26.167Z,15.10
2017-09-03T11:26:53.195Z,15.00
2017-09-03T11:32:16.158Z,14.90
2017-09-03T11:34:43.232Z,14.90
2017-09-03T11:37:10.345Z,15.00
2017-09-03T11:39:37.400Z,14.70
2017-09-03T11:42:04.477Z,14.70
2017-09-03T11:44:31.572Z,14.90
2017-09-03T11:46:58.607Z,15.10
2017-09-03T11:49:25.660Z,15.30
2017-09-03T11:51:53.392Z,15.30
2017-09-03T11:54:20.622Z,15.10
2017-09-03T11:56:47.644Z,15.40
2017-09-03T11:59:14.740Z,15.30
2017-09-03T12:01:41.776Z,15.00
2017-09-03T12:04:08.859Z,15.10
2017-09-03T12:06:35.883Z,15.30
2017-09-03T12:09:02.957Z,15.40
2017-09-03T12:11:30.051Z,15.50
2017-09-03T12:13:57.084Z,15.50
2017-09-03T12:16:24.151Z,14.70
2017-09-03T12:18:51.234Z,14.80
2017-09-03T12:21:18.269Z,15.10
2017-09-03T12:23:45.426Z,15.80
2017-09-03T12:26:12.465Z,15.80
2017-09-03T12:28:39.523Z,15.70
2017-09-03T12:31:06.572Z,16.10
2017-09-03T12:33:33.699Z,15.90
2017-09-03T12:36:00.759Z,15.70
2017-09-03T12:38:27.798Z,15.50
2017-09-03T12:40:54.866Z,15.20
2017-09-03T12:43:21.894Z,15.50
2017-09-03T12:45:48.928Z,15.80
2017-09-03T12:48:15.968Z,15.90
2017-09-03T12:50:43.048Z,16.20
2017-09-03T12:53:10.098Z,15.90
2017-09-03T12:55:37.192Z,16.40
2017-09-03T12:58:04.282Z,16.80
2017-09-03T13:00:31.338Z,16.70
2017-09-03T13:02:58.990Z,16.60
2017-09-03T13:05:26.047Z,16.70
2017-09-03T13:07:53.103Z,17.20
2017-09-03T13:10:20.158Z,16.20
2017-09-03T13:12:47.188Z,15.80
2017-09-03T13:15:14.267Z,16.00
2017-09-03T13:17:41.330Z,16.20
2017-09-03T13:20:08.367Z,16.10
2017-09-03T13:22:35.456Z,16.00
2017-09-03T13:25:02.510Z,16.00
2017-09-03T13:27:29.582Z,16.10
2017-09-03T13:29:56.644Z,16.30
2017-09-03T13:32:23.701Z,16.40
2017-09-03T13:34:51.239Z,16.20
2017-09-03T13:37:18.266Z,16.30
2017-09-03T13:39:45.334Z,16.20
2017-09-03T13:42:12.370Z,16.20
2017-09-03T13:44:39.430Z,16.30
2017-09-03T13:47:06.488Z,16.40
2017-09-03T13:49:33.542Z,16.30
2017-09-03T13:52:00.604Z,16.30
2017-09-03T13:54:27.719Z,16.10
2017-09-03T13:56:54.776Z,15.70
2017-09-03T13:59:21.833Z,15.60
2017-09-03T14:01:48.843Z,15.60
2017-09-03T14:04:15.913Z,15.60
2017-09-03T14:06:42.931Z,15.70
2017-09-03T14:09:09.995Z,15.70
2017-09-03T14:11:37.012Z,16.10
2017-09-03T14:14:04.031Z,15.80
2017-09-03T14:16:31.086Z,15.90
2017-09-03T14:18:59.428Z,16.10
2017-09-03T14:21:26.502Z,16.00
2017-09-03T14:23:53.561Z,16.00
2017-09-03T14:26:20.579Z,16.00
2017-09-03T14:28:47.631Z,16.20
2017-09-03T14:31:14.660Z,16.40
2017-09-03T14:33:41.702Z,16.50
2017-09-03T14:36:08.730Z,16.30
2017-09-03T14:38:35.792Z,16.00
2017-09-03T14:41:02.819Z,16.00
2017-09-03T14:43:29.871Z,16.20
2017-09-03T14:45:56.929Z,16.50
2017-09-03T14:48:23.970Z,16.50
2017-09-03T14:50:51.053Z,16.80
2017-09-03T14:53:18.083Z,17.00
2017-09-03T14:55:45.970Z,16.90
2017-09-03T14:58:13.054Z,16.80
2017-09-03T15:00:40.159Z,16.70
2017-09-03T15:03:07.195Z,16.90
2017-09-03T15:05:34.233Z,17.00
2017-09-03T15:08:01.313Z,17.00
2017-09-03T15:10:29.145Z,16.80
2017-09-03T15:12:56.180Z,16.80
2017-09-03T15:15:23.213Z,16.80
2017-09-03T15:17:50.290Z,16.90
2017-09-03T15:20:17.359Z,16.80
2017-09-03T15:22:44.375Z,16.80
2017-09-03T15:25:11.433Z,17.00
2017-09-03T15:27:38.459Z,17.10
2017-09-03T15:30:06.521Z,16.90
2017-09-03T15:32:33.546Z,16.70
2017-09-03T15:35:00.589Z,16.80
2017-09-03T15:37:28.406Z,16.70
2017-09-03T15:39:55.465Z,16.70
2017-09-03T15:42:22.507Z,16.60
2017-09-03T15:44:49.524Z,16.50
2017-09-03T15:47:16.575Z,16.70
2017-09-03T15:49:43.608Z,16.70
2017-09-03T15:52:10.647Z,17.00
2017-09-03T15:54:37.677Z,16.80
2017-09-03T15:57:04.736Z,16.90
2017-09-03T15:59:31.791Z,16.90
2017-09-03T16:01:58.857Z,17.00
2017-09-03T16:04:25.902Z,17.00
2017-09-03T16:06:52.959Z,17.10
2017-09-03T16:09:20.006Z,17.10
2017-09-03T16:11:47.073Z,17.10
2017-09-03T16:14:14.104Z,16.70
2017-09-03T16:16:41.189Z,16.90
2017-09-03T16:19:08.199Z,17.00
2017-09-03T16:21:35.276Z,17.00
2017-09-03T16:24:02.339Z,16.90
2017-09-03T16:26:29.366Z,16.40
2017-09-03T16:28:56.425Z,16.40
2017-09-03T16:31:23.448Z,16.60
2017-09-03T16:33:50.520Z,16.60
2017-09-03T16:36:17.531Z,16.70
2017-09-03T16:38:44.580Z,16.90
2017-09-03T16:41:11.628Z,16.70
2017-09-03T16:43:38.668Z,16.50
2017-09-03T16:46:05.713Z,16.40
2017-09-03T16:48:32.732Z,16.30
2017-09-03T16:50:59.787Z,16.10
2017-09-03T16:53:26.868Z,16.00
2017-09-03T16:55:53.929Z,15.90
2017-09-03T16:58:21.081Z,15.70
2017-09-03T17:00:48.139Z,15.60
2017-09-03T17:03:15.196Z,15.70
2017-09-03T17:05:42.218Z,15.50
2017-09-03T17:08:09.396Z,15.50
2017-09-03T17:10:36.437Z,15.30
2017-09-03T17:13:03.498Z,15.20
2017-09-03T17:15:30.620Z,15.00
2017-09-03T17:17:57.668Z,14.70
2017-09-03T17:20:25.217Z,14.60
2017-09-03T17:22:52.281Z,14.50
2017-09-03T17:25:19.339Z,14.40
2017-09-03T17:27:46.611Z,14.40
2017-09-03T17:30:13.634Z,14.20
2017-09-03T17:32:40.748Z,14.20
2017-09-03T17:35:11.296Z,13.90
2017-09-03T17:37:44.218Z,13.70
2017-09-03T17:40:14.926Z,13.70
2017-09-03T17:42:43.847Z,13.90
2017-09-03T17:45:10.874Z,14.00
2017-09-03T17:47:37.960Z,13.90
2017-09-03T17:50:04.995Z,13.90
2017-09-03T17:52:32.040Z,13.60
2017-09-03T17:54:59.082Z,13.30
2017-09-03T17:57:26.120Z,13.20
2017-09-03T17:59:53.669Z,13.20
2017-09-03T18:02:20.736Z,13.30
2017-09-03T18:04:49.412Z,13.50
2017-09-03T18:07:16.470Z,13.10
2017-09-03T18:09:43.503Z,13.20
2017-09-03T18:12:10.568Z,13.40
2017-09-03T18:14:37.685Z,13.50
2017-09-03T18:17:04.736Z,13.20
2017-09-03T18:19:31.776Z,12.70
2017-09-03T18:21:58.805Z,13.00
2017-09-03T18:24:26.655Z,13.20
2017-09-03T18:26:53.670Z,13.20
2017-09-03T18:29:22.249Z,13.10
2017-09-03T18:31:49.956Z,12.40
2017-09-03T18:34:17.010Z,12.20
2017-09-03T18:36:44.839Z,12.20
2017-09-03T18:39:12.373Z,12.10
2017-09-03T18:41:39.442Z,12.30
2017-09-03T18:44:08.386Z,12.50
2017-09-03T18:46:36.194Z,12.30
2017-09-03T18:49:03.279Z,12.40
2017-09-03T18:54:40.578Z,11.90
2017-09-03T18:57:07.579Z,12.00
2017-09-03T18:59:37.192Z,12.00
2017-09-03T19:02:05.103Z,11.80
2017-09-03T19:04:49.882Z,11.50
2017-09-03T19:07:16.922Z,11.40
2017-09-03T19:09:43.974Z,11.70
2017-09-03T19:12:11.026Z,11.90
2017-09-03T19:14:38.072Z,12.00
2017-09-03T19:17:05.121Z,12.10
2017-09-03T19:19:32.141Z,12.10
2017-09-03T19:21:59.185Z,12.10
2017-09-03T19:24:26.203Z,12.10
2017-09-03T19:26:53.277Z,12.00
2017-09-03T19:29:20.290Z,12.00
2017-09-03T19:31:47.340Z,11.90
2017-09-03T19:34:14.396Z,11.70
2017-09-03T19:36:41.429Z,11.30
2017-09-03T19:39:08.458Z,10.70
2017-09-03T19:41:35.511Z,10.90
2017-09-03T19:44:02.550Z,11.00
2017-09-03T19:46:29.589Z,11.30
2017-09-03T19:48:56.626Z,11.40
2017-09-03T19:51:23.673Z,11.40
2017-09-03T19:53:50.699Z,11.40
2017-09-03T19:56:17.751Z,11.20
2017-09-03T19:58:44.788Z,11.30
2017-09-03T20:01:11.809Z,11.30
2017-09-03T20:03:38.867Z,11.40
2017-09-03T20:06:05.898Z,11.40
2017-09-03T20:08:32.982Z,11.30
2017-09-03T20:10:59.990Z,10.50
2017-09-03T20:13:27.043Z,10.10
2017-09-03T20:15:54.100Z,10.50
2017-09-03T20:18:21.145Z,10.90
2017-09-03T20:20:48.186Z,11.00
2017-09-03T20:23:15.223Z,11.00
2017-09-03T20:25:42.247Z,10.80
2017-09-03T20:28:09.298Z,10.90
2017-09-03T20:30:36.347Z,10.90
2017-09-03T20:33:03.449Z,10.90
2017-09-03T20:35:30.468Z,10.80
2017-09-03T20:37:57.499Z,10.80
2017-09-03T20:40:24.559Z,10.50
2017-09-03T20:42:51.598Z,10.70
2017-09-03T20:45:18.659Z,10.70
2017-09-03T20:47:46.458Z,10.70
2017-09-03T20:50:13.536Z,10.70
2017-09-03T20:52:40.566Z,10.70
2017-09-03T20:55:07.608Z,10.60
2017-09-03T20:57:34.638Z,10.60
2017-09-03T21:00:01.675Z,10.60
2017-09-03T21:02:28.747Z,10.60
2017-09-03T21:04:55.771Z,10.60
2017-09-03T21:07:22.824Z,10.50
2017-09-03T21:09:49.840Z,10.50
2017-09-03T21:12:16.919Z,10.40
2017-09-03T21:14:43.968Z,10.40
2017-09-03T21:17:11.038Z,10.40
2017-09-03T21:19:38.071Z,10.30
2017-09-03T21:22:05.880Z,10.20
2017-09-03T21:24:32.922Z,10.20
2017-09-03T21:26:59.950Z,10.20
2017-09-03T21:29:27.020Z,9.90
2017-09-03T21:31:54.063Z,10.00
2017-09-03T21:34:21.134Z,10.10
2017-09-03T21:36:48.191Z,10.10
2017-09-03T21:39:15.237Z,10.10
2017-09-03T21:41:42.326Z,10.10
2017-09-03T21:44:10.113Z,9.90
2017-09-03T21:46:37.170Z,9.90
2017-09-03T21:49:04.191Z,9.90
2017-09-03T21:51:31.239Z,9.90
2017-09-03T21:53:58.270Z,10.00
2017-09-03T21:56:26.049Z,9.80
2017-09-03T21:58:53.098Z,9.80
2017-09-03T22:01:20.117Z,9.60
2017-09-03T22:03:47.126Z,9.70
2017-09-03T22:06:14.176Z,9.60
2017-09-03T22:08:41.207Z,9.60
2017-09-03T22:11:08.251Z,9.70
2017-09-03T22:13:35.266Z,9.50
2017-09-03T22:16:02.301Z,9.30
2017-09-03T22:18:29.347Z,9.30
2017-09-03T22:20:56.369Z,8.40
2017-09-03T22:23:23.426Z,8.20
2017-09-03T22:25:50.453Z,8.10
2017-09-03T22:28:17.487Z,8.40
2017-09-03T22:30:44.512Z,8.90
2017-09-03T22:33:11.560Z,8.80
2017-09-03T22:35:38.582Z,8.70
2017-09-03T22:38:05.647Z,8.90
2017-09-03T22:40:33.427Z,9.10
2017-09-03T22:43:00.482Z,9.20
2017-09-03T22:45:27.514Z,9.20
2017-09-03T22:47:54.574Z,9.20
2017-09-03T22:50:21.595Z,9.20
2017-09-03T22:52:48.666Z,9.10
2017-09-03T22:55:15.694Z,8.90
2017-09-03T22:57:42.718Z,9.10
2017-09-03T23:00:09.780Z,9.10
2017-09-03T23:02:36.823Z,8.40
2017-09-03T23:05:03.904Z,8.50
2017-09-03T23:07:30.942Z,8.70
2017-09-03T23:09:57.954Z,8.90
2017-09-03T23:12:25.020Z,8.90
2017-09-03T23:14:52.032Z,8.90
2017-09-03T23:17:19.049Z,8.90
2017-09-03T23:19:46.090Z,8.90
2017-09-03T23:22:13.881Z,9.00
2017-09-03T23:24:40.913Z,8.90
2017-09-03T23:27:07.945Z,8.90
2017-09-03T23:29:34.991Z,8.90
2017-09-03T23:32:02.026Z,8.90
2017-09-03T23:34:29.039Z,8.70
2017-09-03T23:36:56.086Z,8.40
2017-09-03T23:39:23.089Z,8.40
2017-09-03T23:41:50.140Z,8.50
2017-09-03T23:44:17.131Z,8.60
2017-09-03T23:46:44.179Z,8.60
2017-09-03T23:49:11.219Z,8.70
2017-09-03T23:51:38.235Z,8.70
2017-09-03T23:54:05.281Z,8.70
2017-09-03T23:56:32.287Z,8.60
2017-09-03T23:58:59.351Z,8.60
